Time;durP1;ratioP1;P1;durP2;ratioP2;P2;SDS_P1;SDS_P2;PMS_P1;PMS_P2;Temp;Humidity;BMP_temperature;BMP_pressure;BME280_temperature;BME280_humidity;BME280_pressure;Samples;Min_cycle;Max_cycle;Signal;HPM_P1;HPM_P2
2022/10/20 08:01:22;;;;;;;16.60;14.13;;;;;;;12.11;100.00;101048.03;5378727;27;107280;-69
2022/10/20 08:03:53;;;;;;;18.55;14.95;;;;;;;12.15;100.00;101047.16;5365349;27;20121;-69
2022/10/20 08:06:25;;;;;;;19.35;14.30;;;;;;;12.19;100.00;101030.69;5364399;27;20022;-69
2022/10/20 08:08:57;;;;;;;18.08;14.52;;;;;;;12.27;100.00;101026.44;5363392;27;20098;-70
2022/10/20 08:11:28;;;;;;;16.35;13.13;;;;;;;12.28;100.00;101044.78;5364999;27;20023;-70
2022/10/20 08:13:59;;;;;;;18.38;13.48;;;;;;;12.34;100.00;101041.63;5363888;27;20522;-68
2022/10/20 08:16:30;;;;;;;18.33;14.73;;;;;;;12.43;100.00;101041.00;5364510;27;20063;-69
2022/10/20 08:19:02;;;;;;;16.27;13.85;;;;;;;12.49;100.00;101037.84;5364316;27;20505;-69
2022/10/20 08:21:33;;;;;;;15.27;13.75;;;;;;;12.48;100.00;101027.84;5364336;27;20046;-69
2022/10/20 08:24:05;;;;;;;17.92;13.60;;;;;;;12.52;100.00;101040.00;5364651;27;20015;-69
2022/10/20 08:26:36;;;;;;;18.13;13.32;;;;;;;12.62;100.00;101034.31;5360869;27;20110;-69
2022/10/20 08:29:08;;;;;;;14.55;13.05;;;;;;;12.65;100.00;101029.28;5359312;27;20037;-70
2022/10/20 08:31:39;;;;;;;16.67;12.73;;;;;;;12.74;100.00;101033.06;5364699;27;20045;-69
2022/10/20 08:34:11;;;;;;;15.70;13.00;;;;;;;12.79;100.00;101027.44;5363661;27;20379;-69
2022/10/20 08:36:42;;;;;;;16.60;12.80;;;;;;;12.77;100.00;101030.50;5364424;27;20035;-70
2022/10/20 08:39:13;;;;;;;16.25;12.93;;;;;;;12.80;100.00;101045.78;5363521;27;20026;-68
2022/10/20 08:41:48;;;;;;;14.75;11.88;;;;;;;12.84;100.00;101039.31;5363839;27;20393;-69
2022/10/20 08:44:24;;;;;;;13.80;11.50;;;;;;;12.90;100.00;101039.25;5364149;27;20409;-69
2022/10/20 08:47:00;;;;;;;15.02;13.23;;;;;;;12.95;100.00;101030.81;5364509;27;20385;-69
2022/10/20 08:49:33;;;;;;;14.18;11.85;;;;;;;13.01;100.00;101029.59;5362946;27;20046;-69
2022/10/20 08:52:11;;;;;;;13.60;11.35;;;;;;;13.03;100.00;101030.94;5363853;27;20042;-68
2022/10/20 08:54:43;;;;;;;15.55;12.23;;;;;;;13.00;100.00;101012.06;5363801;27;20026;-70
2022/10/20 08:57:26;;;;;;;13.43;12.13;;;;;;;13.16;100.00;101006.25;5363373;27;20027;-69
2022/10/20 09:00:13;;;;;;;16.17;12.15;;;;;;;13.18;100.00;101002.03;5353363;27;20035;-69
2022/10/20 09:02:46;;;;;;;13.75;12.35;;;;;;;13.20;100.00;101002.56;5349719;27;20027;-69
2022/10/20 09:05:27;;;;;;;14.32;10.90;;;;;;;13.30;100.00;101004.41;5356752;27;20023;-69
2022/10/20 09:08:02;;;;;;;14.18;12.48;;;;;;;13.27;99.85;101013.38;5353735;27;20042;-69
2022/10/20 09:10:43;;;;;;;15.77;10.38;;;;;;;13.44;100.00;101010.81;5351412;27;20491;-69
2022/10/20 09:13:22;;;;;;;14.68;12.30;;;;;;;13.37;100.00;101007.63;5333338;27;20059;-69
2022/10/20 09:15:58;;;;;;;14.38;12.73;;;;;;;13.45;100.00;101001.34;5328129;27;20431;-70
2022/10/20 09:18:31;;;;;;;15.35;12.55;;;;;;;13.45;99.43;101012.50;5347549;27;20027;-70
2022/10/20 09:21:17;;;;;;;16.17;11.68;;;;;;;13.47;99.56;101007.44;5348964;27;20038;-69
2022/10/20 09:23:55;;;;;;;14.60;12.68;;;;;;;13.47;99.92;101013.03;5345275;27;20126;-69
2022/10/20 09:26:32;;;;;;;13.35;11.98;;;;;;;13.49;100.00;101007.13;5349131;27;20038;-69
2022/10/20 09:29:12;;;;;;;16.17;11.68;;;;;;;13.55;99.84;101000.34;5348736;27;20031;-69
2022/10/20 09:31:53;;;;;;;16.08;12.57;;;;;;;13.57;100.00;100998.06;5349185;27;20145;-69
2022/10/20 09:34:26;;;;;;;14.73;13.20;;;;;;;13.62;100.00;101005.50;5348317;27;20042;-68
2022/10/20 09:37:00;;;;;;;16.45;11.38;;;;;;;13.64;100.00;101012.44;5348437;27;20027;-68
2022/10/20 09:39:48;;;;;;;15.93;11.23;;;;;;;13.67;100.00;101014.59;5346610;27;20023;-68
2022/10/20 09:42:27;;;;;;;13.60;11.82;;;;;;;13.69;100.00;101011.50;5345774;27;20350;-69
2022/10/20 09:45:04;;;;;;;12.45;9.75;;;;;;;13.85;100.00;101024.03;5345664;27;20151;-70
2022/10/20 09:47:40;;;;;;;12.90;10.85;;;;;;;13.76;99.76;101022.28;5346514;27;20024;-69
2022/10/20 09:50:21;;;;;;;15.50;11.88;;;;;;;13.80;99.78;101026.09;5346402;27;20055;-68
2022/10/20 09:52:53;;;;;;;12.80;11.60;;;;;;;13.76;99.68;101008.34;5345761;27;20019;-70
2022/10/20 09:55:31;;;;;;;14.13;11.10;;;;;;;13.76;100.00;100991.63;5345090;27;20026;-69
2022/10/20 09:58:04;;;;;;;14.70;11.05;;;;;;;13.77;100.00;101002.44;5326983;28;20027;-69
2022/10/20 10:00:44;;;;;;;14.52;11.27;;;;;;;13.78;100.00;100992.09;5345101;27;20097;-69
2022/10/20 10:03:20;;;;;;;12.68;11.05;;;;;;;13.80;100.00;101007.38;5347374;27;20431;-70
2022/10/20 10:05:57;;;;;;;15.07;11.63;;;;;;;13.82;100.00;100993.97;5347059;27;20666;-69
2022/10/20 10:08:42;;;;;;;12.38;11.10;;;;;;;13.86;100.00;101003.38;5337964;27;20028;-71
2022/10/20 10:11:20;;;;;;;13.18;11.77;;;;;;;13.82;100.00;100993.97;5348379;27;20045;-70
2022/10/20 10:13:54;;;;;;;14.30;11.60;;;;;;;13.80;100.00;101007.38;5347275;27;20023;-68
2022/10/20 10:16:26;;;;;;;12.55;11.25;;;;;;;13.96;100.00;101007.09;5346843;27;20111;-68
2022/10/20 10:19:03;;;;;;;14.52;12.55;;;;;;;13.89;100.00;100999.97;5347785;27;20015;-68
2022/10/20 10:21:54;;;;;;;15.05;13.02;;;;;;;13.92;100.00;100999.34;5347221;27;20031;-67
2022/10/20 10:24:37;;;;;;;13.27;11.88;;;;;;;13.97;100.00;100983.69;5346956;27;20055;-69
2022/10/20 10:27:20;;;;;;;16.52;13.25;;;;;;;13.88;100.00;100981.63;5346672;27;20422;-68
2022/10/20 10:30:15;;;;;;;20.33;14.13;;;;;;;13.87;100.00;100981.91;5347532;27;20472;-67
2022/10/20 10:32:46;;;;;;;14.05;12.65;;;;;;;13.85;100.00;100973.84;5347944;27;20026;-67
2022/10/20 10:35:28;;;;;;;15.82;12.77;;;;;;;13.87;100.00;100979.13;5346830;27;20019;-67
2022/10/20 10:37:59;;;;;;;17.95;14.57;;;;;;;13.84;100.00;100961.06;5346964;27;20038;-66
2022/10/20 10:40:39;;;;;;;14.38;12.88;;;;;;;13.84;100.00;100958.25;5346402;27;20528;-68
2022/10/20 10:43:28;;;;;;;15.90;13.95;;;;;;;13.85;100.00;100967.44;5346398;27;20118;-68
2022/10/20 10:46:06;;;;;;;17.55;14.50;;;;;;;13.81;100.00;100972.81;5347060;27;20434;-67
2022/10/20 10:49:02;;;;;;;18.45;14.68;;;;;;;13.79;100.00;100972.31;5346230;27;20020;-67
2022/10/20 10:52:02;;;;;;;17.88;13.70;;;;;;;13.81;100.00;100981.19;5342932;27;20038;-67
2022/10/20 10:54:52;;;;;;;17.38;13.00;;;;;;;13.83;100.00;100989.22;5345930;27;20029;-69
2022/10/20 10:57:31;;;;;;;16.25;13.07;;;;;;;13.84;100.00;100986.13;5339023;27;20021;-69
2022/10/20 11:00:11;;;;;;;16.83;14.30;;;;;;;13.79;100.00;100965.91;5346080;27;20114;-68
2022/10/20 11:03:00;;;;;;;15.93;14.32;;;;;;;13.75;100.00;100971.25;5346760;27;20023;-68
2022/10/20 11:06:05;;;;;;;19.48;13.82;;;;;;;13.82;100.00;100960.53;5347155;27;20457;-67
2022/10/20 11:08:51;;;;;;;17.45;14.43;;;;;;;13.82;100.00;100942.97;5346348;27;20354;-68
2022/10/20 11:12:10;;;;;;;15.65;14.07;;;;;;;13.82;100.00;100942.97;5328400;27;20026;-68
2022/10/20 11:15:20;;;;;;;15.82;14.00;;;;;;;13.79;100.00;100944.44;5321380;28;20035;-68
2022/10/20 11:18:13;;;;;;;17.60;14.02;;;;;;;13.81;100.00;100944.94;5340717;27;20023;-68
2022/10/20 11:21:18;;;;;;;17.60;14.73;;;;;;;13.82;100.00;100948.56;5347079;27;20027;-68
2022/10/20 11:24:12;;;;;;;17.17;15.10;;;;;;;13.83;100.00;100939.03;5344829;27;20059;-68
2022/10/20 11:26:46;;;;;;;17.85;13.70;;;;;;;13.86;100.00;100936.47;5325628;28;20106;-68
2022/10/20 11:29:27;;;;;;;17.42;14.98;;;;;;;13.82;100.00;100926.25;5330386;27;20480;-68
2022/10/20 11:32:25;;;;;;;19.23;14.73;;;;;;;13.85;100.00;100920.88;5339152;27;20076;-67
2022/10/20 11:35:02;;;;;;;18.80;14.65;;;;;;;13.83;100.00;100909.22;5346232;27;20521;-67
2022/10/20 11:37:46;;;;;;;18.58;14.52;;;;;;;13.88;100.00;100903.56;5345592;27;20051;-68
2022/10/20 11:40:29;;;;;;;18.48;15.85;;;;;;;13.85;100.00;100898.56;5344936;27;20501;-68
2022/10/20 11:43:23;;;;;;;19.20;15.30;;;;;;;13.90;100.00;100884.53;5344771;27;20076;-69
2022/10/20 11:46:13;;;;;;;17.02;15.23;;;;;;;13.89;100.00;100888.47;5343939;27;20042;-68
2022/10/20 11:48:55;;;;;;;19.05;15.40;;;;;;;13.87;100.00;100892.69;5343214;27;20045;-68
2022/10/20 11:51:29;;;;;;;18.58;15.68;;;;;;;13.90;100.00;100901.25;5345157;27;20359;-67
2022/10/20 11:54:38;;;;;;;22.77;17.13;;;;;;;13.96;100.00;100903.94;5346467;27;20130;-67
2022/10/20 11:57:31;;;;;;;18.27;13.73;;;;;;;14.05;100.00;100902.09;5336635;27;20039;-68
2022/10/20 12:00:21;;;;;;;17.27;15.50;;;;;;;13.99;100.00;100900.56;5340450;28;20095;-67
2022/10/20 12:03:10;;;;;;;19.20;17.13;;;;;;;14.05;100.00;100902.91;5345781;28;20408;-68
2022/10/20 12:06:04;;;;;;;17.30;15.60;;;;;;;14.07;100.00;100903.41;5344903;27;20374;-68
2022/10/20 12:09:10;;;;;;;18.08;13.98;;;;;;;14.21;100.00;100888.63;5345013;27;20099;-67
2022/10/20 12:12:10;;;;;;;17.58;14.80;;;;;;;14.17;100.00;100888.44;5345859;28;20031;-67
2022/10/20 12:14:46;;;;;;;18.05;16.13;;;;;;;14.17;100.00;100882.84;5345489;27;20031;-67
2022/10/20 12:17:32;;;;;;;19.00;17.08;;;;;;;14.18;100.00;100884.50;5345648;27;20031;-68
2022/10/20 12:20:38;;;;;;;15.38;13.05;;;;;;;14.22;100.00;100879.13;5344381;27;20028;-67
2022/10/20 12:23:42;;;;;;;19.08;16.80;;;;;;;14.18;100.00;100890.06;5346008;28;20080;-67
2022/10/20 12:26:28;;;;;;;18.17;16.35;;;;;;;14.17;100.00;100896.81;5344578;27;20031;-67
2022/10/20 12:29:21;;;;;;;15.80;14.05;;;;;;;14.25;100.00;100884.91;5346229;27;20442;-68
2022/10/20 12:32:20;;;;;;;18.35;16.45;;;;;;;14.30;100.00;100887.56;5345579;28;20066;-68
2022/10/20 12:34:58;;;;;;;17.13;15.45;;;;;;;14.32;100.00;100885.31;5338115;28;20031;-68
2022/10/20 12:37:34;;;;;;;17.45;12.88;;;;;;;14.46;100.00;100890.00;5342940;28;20023;-66
2022/10/20 12:40:06;;;;;;;19.55;15.68;;;;;;;14.43;100.00;100885.88;5344953;27;20031;-66
2022/10/20 12:42:46;;;;;;;18.25;15.48;;;;;;;14.51;100.00;100892.69;5345522;27;20457;-68
2022/10/20 12:45:18;;;;;;;17.02;15.18;;;;;;;14.53;100.00;100882.88;5345581;27;20474;-67
2022/10/20 12:47:53;;;;;;;20.00;16.47;;;;;;;14.60;100.00;100885.25;5348905;27;20114;-67
2022/10/20 12:50:30;;;;;;;;;;;;;;;14.75;100.00;100876.50;5350588;27;20693;-67
2022/10/20 12:53:12;;;;;;;22.23;17.02;;;;;;;14.99;100.00;100869.75;5340533;27;20289;-67
2022/10/20 12:55:52;;;;;;;18.25;16.27;;;;;;;15.13;100.00;100867.69;5348612;27;20023;-66
2022/10/20 12:59:01;;;;;;;18.75;15.50;;;;;;;15.18;100.00;100861.16;5333719;27;20023;-67
2022/10/20 13:02:07;;;;;;;18.38;16.10;;;;;;;15.22;100.00;100868.56;5348487;27;20051;-70
2022/10/20 13:04:57;;;;;;;17.42;15.50;;;;;;;15.29;100.00;100862.53;5349127;27;20022;-69
2022/10/20 13:07:46;;;;;;;19.95;16.48;;;;;;;15.39;100.00;100862.25;5349025;27;20034;-68
2022/10/20 13:10:30;;;;;;;17.45;15.60;;;;;;;15.48;100.00;100848.31;5345602;27;20103;-68
2022/10/20 13:13:01;;;;;;;17.90;16.05;;;;;;;15.61;100.00;100850.16;5328142;28;20386;-68
2022/10/20 13:15:41;;;;;;;17.58;15.77;;;;;;;15.65;100.00;100840.00;5341501;27;20031;-69
2022/10/20 13:18:37;;;;;;;18.83;15.35;;;;;;;15.65;100.00;100841.97;5349280;27;20023;-67
2022/10/20 13:21:25;;;;;;;18.83;14.63;;;;;;;15.66;100.00;100833.25;5345286;27;20473;-66
2022/10/20 13:24:10;;;;;;;16.00;14.35;;;;;;;15.74;100.00;100828.84;5340861;27;20019;-67
2022/10/20 13:26:41;;;;;;;16.27;14.52;;;;;;;15.81;100.00;100831.19;5333986;27;20768;-67
2022/10/20 13:29:20;;;;;;;16.75;13.60;;;;;;;15.82;100.00;100830.88;5333590;27;20068;-68
2022/10/20 13:31:58;;;;;;;15.38;13.77;;;;;;;15.86;100.00;100814.25;5346052;27;20070;-68
2022/10/20 13:34:49;;;;;;;16.00;13.57;;;;;;;15.90;100.00;100804.06;5348764;27;20027;-68
2022/10/20 13:37:32;;;;;;;16.23;14.60;;;;;;;15.93;100.00;100813.78;5348180;27;20102;-68
2022/10/20 13:40:48;;;;;;;20.35;14.82;;;;;;;15.98;100.00;100810.84;5347746;27;20023;-68
2022/10/20 13:43:38;;;;;;;14.73;12.88;;;;;;;15.99;100.00;100807.69;5332720;27;20517;-67
2022/10/20 13:46:38;;;;;;;18.27;13.65;;;;;;;16.05;100.00;100809.19;5345901;27;20027;-65
2022/10/20 13:49:40;;;;;;;18.58;15.93;;;;;;;16.19;100.00;100806.22;5348357;27;20039;-67
2022/10/20 13:52:14;;;;;;;15.48;13.55;;;;;;;16.29;100.00;100822.69;5347596;27;20031;-66
2022/10/20 13:54:48;;;;;;;17.63;13.52;;;;;;;16.34;100.00;100818.91;5348971;27;20022;-65
2022/10/20 13:57:29;;;;;;;16.33;14.68;;;;;;;16.38;100.00;100814.28;5339196;27;20035;-66
2022/10/20 14:00:15;;;;;;;16.65;12.52;;;;;;;16.43;100.00;100800.13;5348231;27;20486;-66
2022/10/20 14:02:53;;;;;;;16.40;14.57;;;;;;;16.46;100.00;100802.28;5346802;27;20099;-66
2022/10/20 14:05:28;;;;;;;18.35;13.98;;;;;;;16.47;100.00;100798.31;5346261;27;20031;-65
2022/10/20 14:08:02;;;;;;;16.02;13.57;;;;;;;16.51;100.00;100793.72;5344466;27;20027;-67
2022/10/20 14:10:42;;;;;;;15.75;14.10;;;;;;;16.62;100.00;100793.38;5346212;27;20037;-67
2022/10/20 14:13:16;;;;;;;15.45;13.93;;;;;;;16.62;100.00;100783.00;5347120;27;20023;-68
2022/10/20 14:15:51;;;;;;;14.38;12.98;;;;;;;16.65;100.00;100795.50;5347689;27;20042;-68
2022/10/20 14:18:28;;;;;;;15.10;13.50;;;;;;;16.65;100.00;100785.13;5347002;27;20019;-67
2022/10/20 14:21:02;;;;;;;14.90;12.93;;;;;;;16.69;100.00;100785.25;5347932;27;20872;-68
2022/10/20 14:23:40;;;;;;;15.15;13.52;;;;;;;16.76;100.00;100777.19;5346849;27;20031;-69
2022/10/20 14:26:18;;;;;;;15.55;13.10;;;;;;;16.80;100.00;100772.59;5347344;27;20031;-68
2022/10/20 14:28:51;;;;;;;13.85;12.35;;;;;;;16.79;100.00;100773.75;5345733;27;20035;-67
2022/10/20 14:31:24;;;;;;;14.68;11.65;;;;;;;16.91;100.00;100776.69;5332655;27;20520;-68
2022/10/20 14:33:55;;;;;;;13.35;11.98;;;;;;;16.93;100.00;100774.38;5346193;27;20019;-67
2022/10/20 14:36:28;;;;;;;14.05;11.77;;;;;;;16.97;100.00;100780.13;5347760;27;20022;-67
2022/10/20 14:39:00;;;;;;;14.23;11.93;;;;;;;17.00;100.00;100776.66;5347948;27;20055;-66
2022/10/20 14:41:34;;;;;;;22.02;13.77;;;;;;;17.00;100.00;100784.22;5347050;27;20401;-68
2022/10/20 14:44:07;;;;;;;14.90;13.50;;;;;;;17.04;100.00;100785.22;5346273;27;20043;-67
2022/10/20 14:46:43;;;;;;;14.70;13.23;;;;;;;16.96;100.00;100778.47;5346908;27;20023;-67
2022/10/20 14:49:20;;;;;;;13.38;12.05;;;;;;;16.97;100.00;100779.28;5347847;27;20078;-68
2022/10/20 14:51:55;;;;;;;14.48;12.93;;;;;;;16.88;100.00;100777.34;5347174;27;20027;-67
2022/10/20 14:54:35;;;;;;;15.52;12.48;;;;;;;16.85;100.00;100775.22;5346425;27;20026;-67
2022/10/20 14:57:06;;;;;;;16.13;13.73;;;;;;;16.85;100.00;100769.63;5340260;27;20144;-67
2022/10/20 14:59:54;;;;;;;13.38;12.13;;;;;;;16.89;100.00;100762.19;5336120;27;20122;-68
2022/10/20 15:02:37;;;;;;;15.00;12.48;;;;;;;16.90;100.00;100769.44;5335685;27;20027;-67
2022/10/20 15:05:25;;;;;;;11.90;10.43;;;;;;;16.95;100.00;100760.84;5345766;27;20359;-67
2022/10/20 15:08:05;;;;;;;16.75;12.98;;;;;;;16.97;100.00;100752.09;5345900;27;20027;-67
2022/10/20 15:10:40;;;;;;;14.73;11.25;;;;;;;16.96;100.00;100756.06;5345931;27;20057;-67
2022/10/20 15:13:20;;;;;;;13.03;11.63;;;;;;;16.95;100.00;100748.84;5345866;27;20027;-67
2022/10/20 15:15:52;;;;;;;11.55;10.18;;;;;;;16.97;100.00;100746.50;5345664;27;20035;-68
2022/10/20 15:18:24;;;;;;;15.18;13.68;;;;;;;16.99;100.00;100746.19;5347187;27;20546;-68
2022/10/20 15:20:56;;;;;;;12.60;10.80;;;;;;;16.96;100.00;100742.06;5346928;27;20057;-66
2022/10/20 15:23:28;;;;;;;14.65;11.13;;;;;;;16.95;100.00;100749.66;5345868;27;20111;-67
2022/10/20 15:26:04;;;;;;;11.38;10.23;;;;;;;16.98;100.00;100755.75;5346746;27;20039;-67
2022/10/20 15:28:38;;;;;;;13.23;10.70;;;;;;;16.97;100.00;100762.50;5346498;27;20164;-67
2022/10/20 15:31:12;;;;;;;14.20;12.32;;;;;;;16.99;100.00;100765.78;5346822;27;20374;-67
2022/10/20 15:33:43;;;;;;;14.85;11.15;;;;;;;16.99;100.00;100761.00;5345928;27;20509;-67
2022/10/20 15:36:19;;;;;;;16.83;11.43;;;;;;;16.93;100.00;100749.16;5345860;27;20027;-68
2022/10/20 15:38:50;;;;;;;12.27;10.88;;;;;;;16.92;100.00;100753.13;5346465;27;20105;-67
2022/10/20 15:41:33;;;;;;;15.52;12.15;;;;;;;16.86;100.00;100746.03;5343788;27;20031;-68
2022/10/20 15:44:15;;;;;;;15.32;12.10;;;;;;;16.84;100.00;100756.75;5345857;27;20030;-68
2022/10/20 15:46:48;;;;;;;12.90;10.68;;;;;;;16.83;100.00;100735.53;5346637;27;20477;-69
2022/10/20 15:49:20;;;;;;;14.57;11.38;;;;;;;16.82;100.00;100745.09;5346033;27;20097;-70
2022/10/20 15:51:52;;;;;;;14.77;10.82;;;;;;;16.78;100.00;100746.91;5345977;27;20019;-70
2022/10/20 15:54:23;;;;;;;12.00;10.75;;;;;;;16.80;100.00;100746.59;5346403;27;20121;-70
2022/10/20 15:56:54;;;;;;;12.25;10.68;;;;;;;16.76;100.00;100742.75;5345074;27;20042;-69
2022/10/20 15:59:26;;;;;;;12.25;10.95;;;;;;;16.72;100.00;100740.63;5345661;27;20080;-69
2022/10/20 16:02:05;;;;;;;15.25;12.68;;;;;;;16.70;100.00;100730.94;5345718;27;20481;-69
2022/10/20 16:04:36;;;;;;;13.95;11.85;;;;;;;16.64;100.00;100743.44;5345103;27;20469;-69
2022/10/20 16:07:07;;;;;;;13.52;12.10;;;;;;;16.59;100.00;100741.66;5346108;27;20079;-71
2022/10/20 16:09:39;;;;;;;16.35;13.02;;;;;;;16.55;100.00;100728.66;5347029;27;20030;-70
2022/10/20 16:12:10;;;;;;;18.75;14.90;;;;;;;16.48;100.00;100732.78;5345741;27;20168;-68
2022/10/20 16:14:41;;;;;;;15.38;13.77;;;;;;;16.42;100.00;100725.72;5346063;28;20019;-69
2022/10/20 16:17:12;;;;;;;16.70;13.85;;;;;;;16.41;100.00;100734.44;5345399;28;20159;-69
2022/10/20 16:19:44;;;;;;;15.93;14.30;;;;;;;16.34;100.00;100734.94;5338920;28;20031;-69
2022/10/20 16:22:15;;;;;;;15.38;13.80;;;;;;;16.30;100.00;100733.97;5334999;27;20122;-68
2022/10/20 16:24:46;;;;;;;18.90;15.20;;;;;;;16.25;100.00;100734.13;5350475;27;20031;-69
2022/10/20 16:27:18;;;;;;;16.52;14.82;;;;;;;16.19;100.00;100736.28;5349907;27;20050;-69
2022/10/20 16:29:49;;;;;;;18.83;15.25;;;;;;;16.18;100.00;100740.25;5350417;27;20373;-68
2022/10/20 16:32:21;;;;;;;16.65;14.90;;;;;;;16.16;100.00;100734.16;5349642;27;20102;-69
2022/10/20 16:34:52;;;;;;;16.73;15.07;;;;;;;16.14;100.00;100735.63;5327543;27;20032;-68
2022/10/20 16:37:24;;;;;;;16.20;14.57;;;;;;;16.09;100.00;100729.03;5329024;28;20043;-68
2022/10/20 16:39:56;;;;;;;17.50;15.45;;;;;;;16.07;100.00;100730.53;5336333;27;20019;-69
2022/10/20 16:42:29;;;;;;;18.55;16.70;;;;;;;16.00;100.00;100733.84;5350339;27;20465;-68
2022/10/20 16:45:00;;;;;;;18.58;16.67;;;;;;;15.95;100.00;100739.59;5345159;27;20498;-69
2022/10/20 16:47:32;;;;;;;16.95;15.18;;;;;;;15.93;100.00;100736.28;5334313;27;20160;-68
2022/10/20 16:50:03;;;;;;;16.92;14.57;;;;;;;15.95;100.00;100742.38;5338110;27;20019;-68
2022/10/20 16:52:35;;;;;;;16.70;15.10;;;;;;;15.91;100.00;100744.19;5328647;28;20036;-68
2022/10/20 16:55:06;;;;;;;16.50;14.63;;;;;;;15.89;100.00;100740.88;5346597;27;20102;-68
2022/10/20 16:57:38;;;;;;;15.13;13.68;;;;;;;15.88;100.00;100744.03;5362895;27;20437;-68
2022/10/20 17:00:10;;;;;;;18.83;14.48;;;;;;;15.82;100.00;100730.22;5368272;27;20474;-68
2022/10/20 17:02:43;;;;;;;17.58;14.90;;;;;;;15.83;100.00;100734.63;5332320;27;20038;-68
2022/10/20 17:05:18;;;;;;;19.60;15.43;;;;;;;15.81;100.00;100730.53;5338935;27;20092;-68
2022/10/20 17:07:49;;;;;;;19.67;15.77;;;;;;;15.79;100.00;100727.22;5348818;27;20114;-68
2022/10/20 17:10:23;;;;;;;20.20;16.67;;;;;;;15.80;100.00;100726.91;5348887;27;20094;-68
2022/10/20 17:12:55;;;;;;;17.42;15.50;;;;;;;15.77;100.00;100726.72;5333003;27;20494;-70
2022/10/20 17:15:26;;;;;;;18.25;16.38;;;;;;;15.73;100.00;100720.16;5348141;27;20015;-70
2022/10/20 17:18:00;;;;;;;19.02;17.00;;;;;;;15.72;100.00;100724.09;5349226;27;20034;-69
2022/10/20 17:20:37;;;;;;;16.50;14.77;;;;;;;15.72;100.00;100726.88;5349353;27;20027;-69
2022/10/20 17:23:08;;;;;;;15.77;14.13;;;;;;;15.61;100.00;100724.38;5348628;27;20023;-68
2022/10/20 17:25:39;;;;;;;16.30;14.57;;;;;;;15.65;100.00;100716.19;5348444;27;20435;-69
2022/10/20 17:28:10;;;;;;;16.35;14.55;;;;;;;15.60;100.00;100722.75;5349165;27;20023;-69
2022/10/20 17:30:44;;;;;;;14.50;13.10;;;;;;;15.57;100.00;100712.22;5348247;27;20049;-69
2022/10/20 17:33:16;;;;;;;14.82;13.43;;;;;;;15.54;100.00;100704.47;5348973;27;20481;-69
